createdAt,value
2017-05-26T00:00:36.781Z,70.01
2017-05-26T00:01:38.621Z,69.82
2017-05-26T00:02:40.457Z,69.73
2017-05-26T00:03:42.300Z,69.64
2017-05-26T00:04:56.440Z,69.54
2017-05-26T00:05:58.261Z,68.96
2017-05-26T00:07:00.103Z,69.35
2017-05-26T00:08:01.940Z,69.06
2017-05-26T00:09:03.756Z,69.64
2017-05-26T00:10:05.600Z,69.25
2017-05-26T00:11:07.436Z,69.06
2017-05-26T00:12:09.252Z,69.25
2017-05-26T00:13:11.099Z,68.71
2017-05-26T00:14:25.222Z,68.68
2017-05-26T00:15:27.064Z,68.77
2017-05-26T00:16:29.109Z,68.49
2017-05-26T00:17:30.949Z,68.52
2017-05-26T00:18:32.794Z,68.90
2017-05-26T00:19:34.631Z,68.13
2017-05-26T00:20:36.451Z,68.13
2017-05-26T00:21:38.392Z,68.04
2017-05-26T00:22:40.210Z,68.23
2017-05-26T00:23:54.389Z,68.04
2017-05-26T00:24:56.226Z,68.04
2017-05-26T00:25:58.067Z,67.76
2017-05-26T00:26:59.914Z,67.85
2017-05-26T00:28:01.734Z,68.04
2017-05-26T00:29:03.577Z,67.85
2017-05-26T00:30:05.392Z,67.85
2017-05-26T00:31:07.206Z,67.66
2017-05-26T00:32:09.075Z,68.04
2017-05-26T00:33:23.198Z,67.85
2017-05-26T00:34:25.038Z,67.47
2017-05-26T00:35:26.857Z,67.85
2017-05-26T00:36:28.697Z,67.27
2017-05-26T00:37:30.846Z,67.18
2017-05-26T00:38:32.656Z,67.76
2017-05-26T00:39:34.494Z,67.76
2017-05-26T00:40:36.321Z,67.56
2017-05-26T00:41:38.157Z,67.66
2017-05-26T00:42:52.433Z,68.13
2017-05-26T00:43:54.242Z,68.33
2017-05-26T00:44:56.087Z,68.04
2017-05-26T00:45:57.898Z,68.04
2017-05-26T00:46:59.752Z,68.10
2017-05-26T00:48:01.959Z,68.01
2017-05-26T00:49:03.770Z,68.10
2017-05-26T00:50:05.592Z,67.85
2017-05-26T00:51:07.437Z,68.04
2017-05-26T00:52:21.580Z,68.01
2017-05-26T00:53:23.427Z,67.91
2017-05-26T00:54:25.271Z,67.94
2017-05-26T00:55:27.107Z,68.04
2017-05-26T00:56:28.952Z,68.04
2017-05-26T00:57:30.795Z,68.13
2017-05-26T00:58:32.644Z,68.01
2017-05-26T00:59:34.479Z,68.10
2017-05-26T01:00:36.324Z,68.01
2017-05-26T01:01:50.493Z,68.29
2017-05-26T01:02:52.339Z,68.29
2017-05-26T01:03:54.285Z,68.58
2017-05-26T01:04:56.122Z,68.49
2017-05-26T01:05:57.964Z,68.29
2017-05-26T01:06:59.800Z,68.49
2017-05-26T01:08:01.611Z,68.87
2017-05-26T01:09:03.861Z,69.25
2017-05-26T01:10:05.701Z,68.87
2017-05-26T01:11:19.869Z,69.35
2017-05-26T01:12:21.683Z,69.15
2017-05-26T01:13:23.523Z,69.06
2017-05-26T01:14:25.387Z,69.06
2017-05-26T01:15:27.206Z,69.64
2017-05-26T01:16:29.044Z,69.54
2017-05-26T01:17:30.887Z,69.50
2017-05-26T01:18:32.702Z,69.50
2017-05-26T01:19:34.741Z,69.79
2017-05-26T01:20:48.917Z,69.89
2017-05-26T01:21:50.760Z,69.70
2017-05-26T01:22:52.597Z,69.60
2017-05-26T01:23:54.417Z,69.70
2017-05-26T01:24:56.367Z,69.70
2017-05-26T01:25:58.203Z,69.50
2017-05-26T01:27:00.047Z,69.60
2017-05-26T01:28:01.861Z,69.70
2017-05-26T01:29:03.706Z,69.70
2017-05-26T01:30:17.897Z,69.98
2017-05-26T01:31:19.717Z,70.27
2017-05-26T01:32:21.559Z,70.27
2017-05-26T01:33:23.368Z,70.56
2017-05-26T01:34:25.187Z,70.46
2017-05-26T01:35:27.026Z,70.46
2017-05-26T01:36:28.882Z,70.75
2017-05-26T01:37:30.707Z,70.94
2017-05-26T01:38:32.549Z,70.84
2017-05-26T01:39:47.102Z,70.75
2017-05-26T01:40:48.944Z,71.28
2017-05-26T01:41:50.782Z,71.19
2017-05-26T01:42:52.627Z,71.57
2017-05-26T01:43:54.464Z,71.38
2017-05-26T01:44:56.281Z,71.38
2017-05-26T01:45:58.225Z,71.76
2017-05-26T01:47:00.066Z,71.57
2017-05-26T01:48:01.910Z,71.76
2017-05-26T01:49:16.082Z,72.14
2017-05-26T01:50:17.919Z,71.38
2017-05-26T01:51:19.789Z,71.28
2017-05-26T01:52:21.603Z,71.47
2017-05-26T01:53:23.419Z,71.57
2017-05-26T01:54:25.260Z,71.38
2017-05-26T01:55:27.072Z,71.67
2017-05-26T01:56:29.119Z,71.67
2017-05-26T01:57:30.953Z,71.28
2017-05-26T01:58:45.097Z,71.57
2017-05-26T01:59:46.911Z,71.38
2017-05-26T02:00:48.755Z,71.47
2017-05-26T02:01:50.842Z,71.38
2017-05-26T02:02:52.684Z,71.28
2017-05-26T02:03:54.526Z,71.57
2017-05-26T02:04:56.369Z,71.28
2017-05-26T02:05:58.184Z,71.67
2017-05-26T02:07:00.128Z,71.67
2017-05-26T02:08:14.248Z,71.86
2017-05-26T02:09:16.069Z,71.47
2017-05-26T02:10:17.907Z,71.47
2017-05-26T02:11:19.718Z,71.76
2017-05-26T02:12:21.885Z,71.28
2017-05-26T02:13:23.703Z,71.67
2017-05-26T02:14:25.546Z,71.57
2017-05-26T02:15:27.357Z,71.47
2017-05-26T02:16:29.174Z,71.57
2017-05-26T02:17:43.337Z,71.47
2017-05-26T02:18:45.156Z,71.67
2017-05-26T02:19:46.997Z,71.76
2017-05-26T02:20:48.834Z,72.14
2017-05-26T02:21:50.681Z,72.14
2017-05-26T02:22:52.542Z,71.86
2017-05-26T02:23:54.355Z,72.53
2017-05-26T02:24:56.191Z,71.76
2017-05-26T02:25:58.012Z,72.05
2017-05-26T02:27:12.283Z,72.24
2017-05-26T02:28:14.131Z,72.05
2017-05-26T02:29:15.968Z,72.11
2017-05-26T02:30:17.787Z,72.49
2017-05-26T02:31:19.608Z,72.33
2017-05-26T02:32:21.446Z,72.39
2017-05-26T02:33:23.557Z,72.97
2017-05-26T02:34:25.377Z,72.97
2017-05-26T02:35:27.194Z,72.58
2017-05-26T02:36:41.359Z,72.78
2017-05-26T02:37:43.176Z,72.39
2017-05-26T02:38:45.047Z,72.97
2017-05-26T02:39:46.887Z,72.78
2017-05-26T02:40:48.733Z,72.78
2017-05-26T02:41:50.571Z,72.68
2017-05-26T02:42:52.389Z,73.35
2017-05-26T02:43:54.410Z,73.44
2017-05-26T02:44:56.248Z,73.25
2017-05-26T02:46:10.422Z,73.16
2017-05-26T02:47:12.266Z,73.25
2017-05-26T02:48:14.110Z,73.44
2017-05-26T02:49:16.029Z,72.97
2017-05-26T02:50:17.852Z,73.25
2017-05-26T02:51:19.670Z,73.16
2017-05-26T02:52:21.513Z,73.25
2017-05-26T02:53:23.360Z,73.35
2017-05-26T02:54:25.203Z,73.35
2017-05-26T02:55:39.376Z,72.68
2017-05-26T02:56:41.220Z,72.87
2017-05-26T02:57:43.064Z,72.49
2017-05-26T02:58:44.883Z,72.49
2017-05-26T02:59:46.723Z,72.49
2017-05-26T03:00:48.549Z,72.49
2017-05-26T03:01:50.388Z,72.30
2017-05-26T03:02:52.204Z,73.07
2017-05-26T03:03:54.049Z,72.97
2017-05-26T03:05:08.566Z,73.16
2017-05-26T03:06:10.389Z,73.92
2017-05-26T03:07:12.233Z,73.54
2017-05-26T03:08:14.051Z,73.25
2017-05-26T03:09:15.899Z,73.25
2017-05-26T03:10:17.938Z,73.44
2017-05-26T03:11:19.754Z,72.53
2017-05-26T03:12:21.575Z,72.33
2017-05-26T03:13:23.418Z,72.33
2017-05-26T03:14:37.563Z,71.86
2017-05-26T03:15:39.410Z,71.67
2017-05-26T03:16:41.263Z,71.51
2017-05-26T03:17:43.105Z,70.75
2017-05-26T03:18:44.953Z,70.84
2017-05-26T03:19:46.798Z,69.92
2017-05-26T03:20:49.046Z,69.06
2017-05-26T03:21:50.865Z,68.58
2017-05-26T03:22:52.706Z,68.01
2017-05-26T03:24:06.868Z,67.56
2017-05-26T03:25:08.716Z,67.18
2017-05-26T03:26:10.864Z,66.61
2017-05-26T03:27:12.705Z,66.35
2017-05-26T03:28:14.531Z,65.39
2017-05-26T03:29:16.379Z,64.53
2017-05-26T03:30:18.228Z,64.09
2017-05-26T03:31:20.106Z,63.42
2017-05-26T03:32:21.956Z,62.65
2017-05-26T03:33:36.061Z,62.55
2017-05-26T03:34:37.907Z,61.91
2017-05-26T03:35:39.738Z,61.53
2017-05-26T03:36:41.985Z,60.79
2017-05-26T03:37:43.833Z,60.60
2017-05-26T03:38:45.672Z,60.03
2017-05-26T03:39:47.500Z,59.77
2017-05-26T03:40:49.346Z,58.52
2017-05-26T03:41:51.292Z,58.14
2017-05-26T03:43:05.469Z,56.92
2017-05-26T03:44:07.279Z,56.82
2017-05-26T03:45:09.127Z,56.27
2017-05-26T03:46:10.951Z,55.51
2017-05-26T03:47:13.174Z,54.96
2017-05-26T03:48:15.021Z,54.86
2017-05-26T03:49:16.847Z,53.74
2017-05-26T03:50:18.704Z,52.97
2017-05-26T03:51:20.554Z,52.03
2017-05-26T03:52:34.704Z,51.45
2017-05-26T03:53:36.532Z,51.26
2017-05-26T03:54:38.351Z,51.55
2017-05-26T03:55:40.173Z,50.97
2017-05-26T03:56:42.000Z,51.07
2017-05-26T03:57:44.025Z,50.68
2017-05-26T03:58:45.876Z,50.23
2017-05-26T03:59:47.708Z,49.94
2017-05-26T04:00:49.554Z,49.74
2017-05-26T04:02:03.784Z,49.27
2017-05-26T04:03:05.609Z,48.52
2017-05-26T04:04:07.433Z,48.35
2017-05-26T04:05:09.264Z,47.67
2017-05-26T04:06:11.110Z,47.03
2017-05-26T04:07:13.009Z,46.73
2017-05-26T04:08:15.168Z,45.48
2017-05-26T04:09:16.999Z,45.70
2017-05-26T04:10:18.846Z,45.03
2017-05-26T04:11:33.030Z,44.64
2017-05-26T04:12:34.884Z,44.37
2017-05-26T04:13:36.736Z,44.27
2017-05-26T04:14:38.589Z,43.60
2017-05-26T04:15:40.415Z,43.50
2017-05-26T04:16:42.245Z,43.02
2017-05-26T04:17:44.099Z,43.41
2017-05-26T04:18:46.151Z,43.21
2017-05-26T04:19:47.976Z,43.21
2017-05-26T04:21:02.089Z,43.12
2017-05-26T04:22:03.945Z,42.66
2017-05-26T04:23:05.771Z,42.08
2017-05-26T04:24:07.725Z,41.98
2017-05-26T04:25:09.559Z,42.19
2017-05-26T04:26:11.380Z,41.33
2017-05-26T04:27:13.237Z,41.13
2017-05-26T04:28:15.067Z,40.77
2017-05-26T04:29:16.923Z,40.86
2017-05-26T04:30:31.098Z,40.38
2017-05-26T04:31:32.928Z,40.01
2017-05-26T04:32:34.787Z,39.84
2017-05-26T04:33:36.604Z,39.55
2017-05-26T04:34:38.492Z,38.99
2017-05-26T04:35:40.318Z,38.50
2017-05-26T04:36:42.173Z,38.13
2017-05-26T04:37:44.027Z,37.94
2017-05-26T04:38:45.862Z,37.36
2017-05-26T04:40:00.071Z,36.88
2017-05-26T04:41:01.901Z,36.99
2017-05-26T04:42:03.749Z,36.51
2017-05-26T04:43:05.589Z,36.04
2017-05-26T04:44:07.443Z,35.66
2017-05-26T04:45:09.323Z,35.36
2017-05-26T04:46:11.179Z,35.48
2017-05-26T04:47:13.010Z,35.28
2017-05-26T04:48:14.837Z,35.28
2017-05-26T04:49:29.248Z,34.80
2017-05-26T04:50:31.080Z,34.43
2017-05-26T04:51:32.939Z,34.23
2017-05-26T04:52:34.796Z,34.14
2017-05-26T04:53:36.624Z,34.33
2017-05-26T04:54:38.481Z,33.94
2017-05-26T04:55:40.537Z,33.94
2017-05-26T04:56:42.366Z,33.76
2017-05-26T04:57:44.219Z,33.86
2017-05-26T04:58:58.334Z,33.76
2017-05-26T05:00:00.191Z,33.57
2017-05-26T05:01:02.049Z,33.38
2017-05-26T05:02:03.901Z,33.47
2017-05-26T05:03:05.734Z,33.76
2017-05-26T05:04:07.582Z,33.47
2017-05-26T05:05:09.417Z,33.38
2017-05-26T05:06:11.296Z,33.28
2017-05-26T05:07:13.148Z,33.38
2017-05-26T05:08:27.293Z,33.38
2017-05-26T05:09:29.143Z,33.39
2017-05-26T05:10:30.976Z,33.39
2017-05-26T05:11:33.188Z,33.39
2017-05-26T05:12:35.039Z,33.38
2017-05-26T05:13:36.893Z,33.47
2017-05-26T05:14:38.723Z,33.76
2017-05-26T05:15:40.548Z,33.67
2017-05-26T05:16:42.427Z,33.75
2017-05-26T05:17:56.566Z,34.49
2017-05-26T05:18:58.417Z,35.54
2017-05-26T05:20:00.278Z,36.20
2017-05-26T05:21:02.122Z,37.42
2017-05-26T05:22:04.152Z,38.95
2017-05-26T05:23:06.006Z,39.61
2017-05-26T05:24:07.866Z,39.99
2017-05-26T05:25:09.713Z,40.07
2017-05-26T05:26:11.569Z,41.13
2017-05-26T05:27:25.735Z,41.50
2017-05-26T05:28:27.592Z,42.73
2017-05-26T05:29:29.438Z,43.48
2017-05-26T05:30:31.266Z,44.06
2017-05-26T05:31:33.092Z,44.35
2017-05-26T05:32:35.062Z,44.73
2017-05-26T05:33:36.897Z,44.81
2017-05-26T05:34:38.750Z,45.48
2017-05-26T05:35:40.572Z,46.14
2017-05-26T05:36:54.686Z,46.98
2017-05-26T05:37:56.536Z,47.63
2017-05-26T05:38:58.386Z,48.49
2017-05-26T05:40:00.231Z,49.33
2017-05-26T05:41:02.144Z,50.10
2017-05-26T05:42:03.961Z,50.46
2017-05-26T05:43:05.815Z,50.46
2017-05-26T05:44:07.635Z,51.79
2017-05-26T05:45:09.467Z,52.65
2017-05-26T05:46:23.574Z,53.13
2017-05-26T05:47:25.424Z,53.58
2017-05-26T05:48:27.472Z,53.87
2017-05-26T05:49:29.322Z,54.06
2017-05-26T05:50:31.143Z,54.25
2017-05-26T05:51:32.971Z,54.83
2017-05-26T05:52:34.824Z,54.64
2017-05-26T05:53:36.678Z,54.61
2017-05-26T05:54:38.524Z,55.47
2017-05-26T05:55:52.654Z,55.29
2017-05-26T05:56:54.506Z,56.41
2017-05-26T05:57:56.329Z,56.31
2017-05-26T05:59:01.360Z,56.70
2017-05-26T06:00:03.183Z,56.89
2017-05-26T06:01:05.007Z,57.28
2017-05-26T06:02:06.855Z,56.89
2017-05-26T06:03:08.685Z,56.89
2017-05-26T06:04:10.535Z,57.46
2017-05-26T06:05:24.714Z,57.28
2017-05-26T06:06:26.539Z,56.98
2017-05-26T06:07:28.365Z,56.79
2017-05-26T06:08:30.182Z,57.95
2017-05-26T06:09:32.286Z,58.23
2017-05-26T06:10:34.107Z,58.42
2017-05-26T06:11:35.929Z,58.42
2017-05-26T06:12:37.758Z,58.23
2017-05-26T06:13:39.612Z,58.42
2017-05-26T06:14:53.992Z,58.23
2017-05-26T06:15:55.843Z,57.95
2017-05-26T06:16:57.670Z,57.95
2017-05-26T06:17:59.517Z,57.65
2017-05-26T06:19:01.341Z,57.85
2017-05-26T06:20:03.390Z,58.04
2017-05-26T06:21:05.210Z,57.85
2017-05-26T06:22:07.036Z,58.23
2017-05-26T06:23:08.891Z,58.52
2017-05-26T06:24:22.997Z,59.00
2017-05-26T06:25:24.848Z,59.67
2017-05-26T06:26:26.670Z,59.48
2017-05-26T06:27:28.527Z,59.67
2017-05-26T06:28:30.367Z,59.00
2017-05-26T06:29:32.193Z,59.77
2017-05-26T06:30:34.150Z,60.05
2017-05-26T06:31:35.996Z,59.86
2017-05-26T06:32:37.822Z,59.86
2017-05-26T06:33:51.998Z,60.35
2017-05-26T06:34:53.828Z,60.53
2017-05-26T06:35:55.877Z,60.35
2017-05-26T06:36:57.702Z,60.35
2017-05-26T06:37:59.525Z,59.89
2017-05-26T06:39:01.351Z,59.51
2017-05-26T06:40:03.177Z,59.32
2017-05-26T06:41:05.227Z,59.51
2017-05-26T06:42:07.048Z,59.51
2017-05-26T06:43:21.233Z,60.18
2017-05-26T06:44:23.079Z,60.53
2017-05-26T06:45:24.901Z,61.11
2017-05-26T06:46:26.773Z,60.82
2017-05-26T06:47:28.598Z,60.92
2017-05-26T06:48:30.411Z,61.30
2017-05-26T06:49:32.241Z,61.59
2017-05-26T06:50:34.100Z,61.69
2017-05-26T06:51:36.008Z,62.26
2017-05-26T06:52:50.104Z,61.98
2017-05-26T06:53:51.949Z,62.07
2017-05-26T06:54:53.779Z,61.98
2017-05-26T06:55:55.607Z,61.91
2017-05-26T06:56:57.457Z,61.52
2017-05-26T06:57:59.302Z,61.24
2017-05-26T06:59:01.151Z,61.72
2017-05-26T07:00:03.002Z,61.24
2017-05-26T07:01:04.852Z,60.98
2017-05-26T07:02:19.321Z,61.55
2017-05-26T07:03:21.190Z,61.27
2017-05-26T07:04:23.040Z,61.27
2017-05-26T07:05:24.941Z,60.88
2017-05-26T07:06:26.787Z,61.14
2017-05-26T07:07:28.645Z,61.27
2017-05-26T07:08:30.489Z,61.17
2017-05-26T07:09:32.313Z,60.98
2017-05-26T07:10:34.166Z,60.02
2017-05-26T07:11:48.352Z,60.02
2017-05-26T07:12:50.204Z,59.95
2017-05-26T07:13:52.035Z,60.24
2017-05-26T07:14:53.886Z,59.95
2017-05-26T07:15:55.757Z,59.66
2017-05-26T07:16:57.579Z,59.95
2017-05-26T07:17:59.628Z,59.92
2017-05-26T07:19:01.479Z,59.92
2017-05-26T07:20:03.328Z,60.98
2017-05-26T07:21:17.440Z,60.31
2017-05-26T07:22:19.368Z,59.73
2017-05-26T07:23:21.376Z,59.92
2017-05-26T07:24:23.233Z,60.31
2017-05-26T07:25:25.091Z,60.69
2017-05-26T07:26:26.945Z,60.69
2017-05-26T07:27:28.791Z,60.60
2017-05-26T07:28:30.826Z,60.60
2017-05-26T07:29:32.751Z,60.31
2017-05-26T07:30:46.909Z,60.14
2017-05-26T07:31:48.782Z,59.95
2017-05-26T07:32:50.632Z,60.43
2017-05-26T07:33:52.716Z,60.72
2017-05-26T07:34:54.571Z,60.08
2017-05-26T07:35:56.425Z,59.89
2017-05-26T07:36:58.253Z,59.79
2017-05-26T07:38:00.076Z,59.12
2017-05-26T07:39:05.131Z,58.35
2017-05-26T07:40:19.289Z,59.12
2017-05-26T07:41:21.140Z,58.92
2017-05-26T07:42:22.972Z,58.64
2017-05-26T07:43:24.828Z,58.35
2017-05-26T07:44:26.689Z,58.64
2017-05-26T07:45:28.510Z,58.76
2017-05-26T07:46:30.343Z,57.99
2017-05-26T07:47:32.194Z,57.92
2017-05-26T07:48:34.025Z,57.45
2017-05-26T07:49:48.176Z,57.54
2017-05-26T07:50:50.026Z,57.06
2017-05-26T07:51:51.882Z,57.06
2017-05-26T07:52:53.733Z,56.77
2017-05-26T07:53:55.580Z,56.48
2017-05-26T07:54:57.433Z,56.87
2017-05-26T07:55:59.255Z,57.15
2017-05-26T07:57:01.111Z,57.03
2017-05-26T07:58:02.941Z,56.93
2017-05-26T07:59:17.074Z,56.65
2017-05-26T08:00:18.926Z,56.45
2017-05-26T08:01:20.776Z,56.55
2017-05-26T08:02:22.609Z,57.13
2017-05-26T08:03:24.581Z,57.51
2017-05-26T08:04:26.500Z,57.22
2017-05-26T08:05:28.543Z,58.02
2017-05-26T08:06:30.414Z,57.83
2017-05-26T08:07:32.248Z,57.54
2017-05-26T08:08:46.458Z,55.71
2017-05-26T08:09:48.318Z,55.90
2017-05-26T08:10:50.170Z,56.10
2017-05-26T08:11:52.021Z,56.51
2017-05-26T08:12:53.912Z,55.55
2017-05-26T08:13:55.782Z,55.65
2017-05-26T08:14:57.651Z,55.45
2017-05-26T08:15:59.525Z,56.03
2017-05-26T08:17:01.367Z,55.26
2017-05-26T08:18:15.562Z,54.78
2017-05-26T08:19:17.442Z,54.97
2017-05-26T08:20:19.325Z,55.26
2017-05-26T08:21:21.234Z,56.03
2017-05-26T08:22:23.098Z,55.93
2017-05-26T08:23:24.964Z,55.83
2017-05-26T08:24:26.823Z,56.41
2017-05-26T08:25:28.658Z,56.80
2017-05-26T08:26:30.538Z,56.41
2017-05-26T08:27:44.726Z,56.99
2017-05-26T08:28:46.600Z,57.18
2017-05-26T08:29:48.565Z,56.90
2017-05-26T08:30:50.410Z,56.92
2017-05-26T08:31:52.476Z,55.67
2017-05-26T08:32:54.301Z,55.51
2017-05-26T08:33:56.157Z,54.54
2017-05-26T08:34:58.018Z,54.16
2017-05-26T08:35:59.875Z,53.94
2017-05-26T08:37:14.054Z,53.55
2017-05-26T08:38:15.879Z,53.81
2017-05-26T08:39:17.731Z,54.87
2017-05-26T08:40:19.646Z,54.97
2017-05-26T08:41:21.514Z,55.26
2017-05-26T08:42:23.721Z,56.22
2017-05-26T08:43:25.553Z,56.12
2017-05-26T08:44:27.382Z,56.05
2017-05-26T08:45:29.232Z,55.87
2017-05-26T08:46:43.370Z,55.67
2017-05-26T08:47:45.197Z,55.87
2017-05-26T08:48:47.074Z,54.90
2017-05-26T08:49:49.097Z,55.57
2017-05-26T08:50:50.904Z,55.60
2017-05-26T08:51:52.821Z,55.89
2017-05-26T08:52:54.748Z,54.64
2017-05-26T08:53:56.617Z,54.83
2017-05-26T08:54:58.521Z,54.83
2017-05-26T08:56:12.688Z,54.16
2017-05-26T08:57:14.596Z,54.74
2017-05-26T08:58:16.589Z,55.09
2017-05-26T08:59:18.457Z,55.67
2017-05-26T09:00:20.314Z,56.05
2017-05-26T09:01:22.558Z,56.25
2017-05-26T09:02:24.367Z,56.44
2017-05-26T09:03:26.249Z,56.15
2017-05-26T09:04:28.108Z,56.05
2017-05-26T09:05:42.292Z,55.79
2017-05-26T09:06:44.150Z,55.41
2017-05-26T09:07:46.010Z,55.70
2017-05-26T09:08:47.959Z,54.93
2017-05-26T09:09:49.817Z,54.57
2017-05-26T09:10:51.672Z,54.09
2017-05-26T09:11:53.595Z,54.09
2017-05-26T09:12:55.498Z,54.38
2017-05-26T09:13:57.610Z,54.11
2017-05-26T09:15:11.973Z,53.99
2017-05-26T09:16:13.817Z,53.89
2017-05-26T09:17:15.656Z,53.80
2017-05-26T09:18:17.512Z,54.18
2017-05-26T09:19:19.367Z,53.31
2017-05-26T09:20:21.273Z,53.22
2017-05-26T09:21:23.172Z,53.61
2017-05-26T09:22:25.020Z,54.28
2017-05-26T09:23:26.854Z,54.86
2017-05-26T09:24:41.518Z,53.89
2017-05-26T09:25:43.369Z,54.09
2017-05-26T09:26:45.203Z,54.38
2017-05-26T09:27:47.115Z,53.22
2017-05-26T09:28:48.969Z,51.58
2017-05-26T09:29:51.018Z,52.81
2017-05-26T09:30:52.849Z,53.87
2017-05-26T09:31:54.706Z,53.58
2017-05-26T09:32:56.535Z,54.25
2017-05-26T09:34:10.707Z,54.54
2017-05-26T09:35:12.561Z,55.02
2017-05-26T09:36:14.383Z,55.19
2017-05-26T09:37:16.216Z,55.12
2017-05-26T09:38:18.069Z,55.77
2017-05-26T09:39:19.902Z,55.57
2017-05-26T09:40:21.804Z,55.51
2017-05-26T09:41:23.639Z,54.83
2017-05-26T09:42:25.467Z,54.16
2017-05-26T09:43:39.655Z,54.83
2017-05-26T09:44:41.557Z,55.02
2017-05-26T09:45:43.842Z,54.54
2017-05-26T09:46:45.746Z,54.86
2017-05-26T09:47:47.641Z,54.09
2017-05-26T09:48:49.546Z,53.89
2017-05-26T09:49:51.397Z,53.89
2017-05-26T09:50:53.308Z,53.22
2017-05-26T09:51:55.160Z,53.83
2017-05-26T09:53:09.295Z,53.34
2017-05-26T09:54:11.127Z,53.63
2017-05-26T09:55:12.975Z,52.95
2017-05-26T09:56:14.858Z,52.95
2017-05-26T09:57:16.742Z,52.47
2017-05-26T09:58:18.632Z,54.02
2017-05-26T09:59:20.502Z,54.31
2017-05-26T10:00:22.372Z,52.86
2017-05-26T10:01:24.284Z,52.45
2017-05-26T10:02:38.428Z,53.61
2017-05-26T10:03:40.286Z,52.83
2017-05-26T10:04:42.162Z,52.06
2017-05-26T10:05:44.012Z,51.58
2017-05-26T10:06:45.986Z,52.73
2017-05-26T10:07:47.918Z,52.35
2017-05-26T10:08:49.746Z,52.83
2017-05-26T10:09:51.616Z,52.06
2017-05-26T10:10:53.443Z,51.48
2017-05-26T10:12:07.824Z,51.68
2017-05-26T10:13:09.675Z,51.61
2017-05-26T10:14:11.532Z,52.28
2017-05-26T10:15:13.405Z,51.61
2017-05-26T10:16:15.267Z,51.51
2017-05-26T10:17:17.124Z,51.53
2017-05-26T10:18:19.049Z,51.53
2017-05-26T10:19:20.947Z,51.92
2017-05-26T10:20:22.837Z,51.89
2017-05-26T10:21:37.194Z,52.89
2017-05-26T10:22:39.196Z,52.21
2017-05-26T10:23:41.051Z,51.73
2017-05-26T10:24:42.909Z,49.99
2017-05-26T10:25:44.761Z,50.38
2017-05-26T10:26:46.644Z,49.51
2017-05-26T10:27:51.905Z,48.83
2017-05-26T10:28:53.761Z,49.22
2017-05-26T10:29:55.617Z,49.41
2017-05-26T10:31:09.724Z,48.74
2017-05-26T10:32:11.551Z,48.44
2017-05-26T10:33:13.437Z,48.74
2017-05-26T10:34:15.282Z,49.51
2017-05-26T10:35:17.116Z,49.02
2017-05-26T10:36:18.967Z,49.70
2017-05-26T10:37:20.828Z,50.35
2017-05-26T10:38:22.675Z,51.05
2017-05-26T10:39:24.681Z,51.32
2017-05-26T10:40:38.930Z,52.19
2017-05-26T10:41:40.764Z,52.37
2017-05-26T10:42:42.615Z,52.86
2017-05-26T10:43:44.499Z,52.86
2017-05-26T10:44:46.358Z,51.63
2017-05-26T10:45:48.210Z,51.44
2017-05-26T10:46:50.088Z,50.38
2017-05-26T10:47:51.937Z,49.32
2017-05-26T10:48:53.851Z,49.99
2017-05-26T10:50:07.980Z,50.57
2017-05-26T10:51:09.897Z,50.79
2017-05-26T10:52:11.771Z,50.69
2017-05-26T10:53:13.629Z,50.21
2017-05-26T10:54:15.508Z,50.23
2017-05-26T10:55:17.361Z,48.69
2017-05-26T10:56:19.220Z,48.21
2017-05-26T10:57:21.049Z,47.43
2017-05-26T10:58:22.903Z,47.53
2017-05-26T10:59:37.118Z,47.14
2017-05-26T11:00:38.948Z,46.95
2017-05-26T11:01:40.797Z,47.41
2017-05-26T11:02:42.641Z,47.53
2017-05-26T11:03:44.488Z,47.99
2017-05-26T11:04:46.586Z,47.50
2017-05-26T11:05:48.498Z,47.99
2017-05-26T11:06:50.363Z,47.87
2017-05-26T11:07:52.257Z,48.16
2017-05-26T11:09:06.411Z,48.44
2017-05-26T11:10:08.266Z,48.16
2017-05-26T11:11:10.141Z,47.38
2017-05-26T11:12:12.120Z,47.38
2017-05-26T11:13:14.026Z,47.38
2017-05-26T11:14:15.907Z,47.96
2017-05-26T11:15:17.782Z,47.96
2017-05-26T11:16:19.644Z,48.06
2017-05-26T11:17:21.619Z,49.05
2017-05-26T11:18:35.826Z,48.57
2017-05-26T11:19:37.676Z,47.99
2017-05-26T11:20:39.665Z,48.18
2017-05-26T11:21:41.551Z,47.99
2017-05-26T11:22:43.424Z,47.12
2017-05-26T11:23:45.328Z,46.06
2017-05-26T11:24:47.150Z,46.54
2017-05-26T11:25:49.035Z,46.92
2017-05-26T11:26:50.941Z,45.67
2017-05-26T11:28:05.250Z,45.79
2017-05-26T11:29:07.124Z,45.89
2017-05-26T11:30:09.050Z,46.27
2017-05-26T11:31:11.074Z,46.17
2017-05-26T11:32:13.006Z,45.59
2017-05-26T11:33:14.915Z,44.15
2017-05-26T11:34:16.765Z,45.18
2017-05-26T11:35:18.615Z,44.32
2017-05-26T11:36:21.150Z,43.37
2017-05-26T11:37:35.273Z,43.66
2017-05-26T11:38:37.097Z,43.18
2017-05-26T11:39:38.928Z,42.82
2017-05-26T11:40:40.779Z,43.30
2017-05-26T11:41:42.663Z,43.30
2017-05-26T11:42:44.878Z,42.82
2017-05-26T11:43:46.844Z,42.62
2017-05-26T11:44:48.798Z,43.40
2017-05-26T11:45:50.705Z,43.28
2017-05-26T11:47:05.092Z,43.59
2017-05-26T11:48:06.945Z,43.30
2017-05-26T11:49:08.806Z,43.20
2017-05-26T11:50:10.662Z,43.32
2017-05-26T11:51:12.523Z,43.51
2017-05-26T11:52:14.439Z,43.51
2017-05-26T11:53:16.290Z,43.80
2017-05-26T11:54:18.171Z,43.61
2017-05-26T11:55:20.029Z,43.03
2017-05-26T11:56:34.270Z,43.71
2017-05-26T11:57:36.154Z,44.38
2017-05-26T11:58:38.009Z,44.38
2017-05-26T11:59:39.844Z,44.09
2017-05-26T12:00:41.673Z,45.06
2017-05-26T12:01:43.531Z,45.16
2017-05-26T12:02:45.459Z,45.23
2017-05-26T12:03:47.462Z,45.74
2017-05-26T12:04:49.465Z,45.93
2017-05-26T12:06:03.601Z,46.20
2017-05-26T12:07:05.459Z,46.88
2017-05-26T12:08:07.522Z,47.26
2017-05-26T12:09:09.404Z,47.55
2017-05-26T12:10:11.285Z,47.36
2017-05-26T12:11:13.138Z,47.14
2017-05-26T12:12:15.005Z,47.72
2017-05-26T12:13:16.855Z,47.65
2017-05-26T12:14:18.708Z,47.94
2017-05-26T12:15:32.899Z,47.36
2017-05-26T12:16:34.733Z,48.13
2017-05-26T12:17:36.583Z,47.94
2017-05-26T12:18:38.693Z,47.74
2017-05-26T12:19:40.520Z,48.93
2017-05-26T12:20:42.356Z,48.23
2017-05-26T12:21:44.207Z,48.32
2017-05-26T12:22:46.039Z,48.54
2017-05-26T12:23:47.895Z,48.74
2017-05-26T12:25:02.011Z,48.76
2017-05-26T12:26:03.839Z,48.08
2017-05-26T12:27:05.693Z,47.11
2017-05-26T12:28:07.560Z,46.53
2017-05-26T12:29:09.417Z,46.32
2017-05-26T12:30:11.273Z,46.80
2017-05-26T12:31:13.123Z,47.48
2017-05-26T12:32:14.981Z,47.41
2017-05-26T12:33:16.815Z,47.02
2017-05-26T12:34:30.997Z,46.53
2017-05-26T12:35:32.826Z,46.05
2017-05-26T12:36:34.724Z,46.15
2017-05-26T12:37:36.547Z,46.92
2017-05-26T12:38:38.399Z,46.83
2017-05-26T12:39:40.334Z,46.90
2017-05-26T12:40:42.197Z,47.86
2017-05-26T12:41:44.050Z,48.74
2017-05-26T12:42:45.904Z,49.12
2017-05-26T12:44:00.044Z,49.00
2017-05-26T12:45:01.898Z,48.64
2017-05-26T12:46:03.730Z,48.54
2017-05-26T12:47:05.578Z,49.02
2017-05-26T12:48:07.414Z,47.74
2017-05-26T12:49:09.237Z,48.32
2017-05-26T12:50:11.111Z,48.71
2017-05-26T12:51:12.942Z,48.59
2017-05-26T12:52:14.799Z,49.17
2017-05-26T12:53:28.912Z,49.75
2017-05-26T12:54:30.766Z,49.55
2017-05-26T12:55:32.623Z,49.17
2017-05-26T12:56:34.481Z,49.17
2017-05-26T12:57:36.330Z,50.04
2017-05-26T12:58:38.162Z,50.04
2017-05-26T12:59:40.018Z,50.04
2017-05-26T13:00:41.976Z,50.43
2017-05-26T13:01:43.808Z,50.52
2017-05-26T13:02:57.999Z,49.75
2017-05-26T13:03:59.871Z,49.65
2017-05-26T13:05:01.730Z,50.04
2017-05-26T13:06:03.586Z,50.52
2017-05-26T13:07:05.436Z,50.43
2017-05-26T13:08:07.268Z,50.71
2017-05-26T13:09:09.123Z,50.62
2017-05-26T13:10:11.009Z,50.81
2017-05-26T13:11:12.888Z,50.43
2017-05-26T13:12:27.041Z,50.23
2017-05-26T13:13:28.901Z,50.13
2017-05-26T13:14:30.835Z,50.81
2017-05-26T13:15:32.799Z,51.10
2017-05-26T13:16:37.965Z,50.91
2017-05-26T13:17:39.818Z,50.52
2017-05-26T13:18:41.681Z,50.62
2017-05-26T13:19:43.562Z,50.55
2017-05-26T13:20:45.418Z,50.26
2017-05-26T13:22:02.617Z,49.80
2017-05-26T13:23:04.463Z,49.41
2017-05-26T13:24:06.300Z,48.54
2017-05-26T13:25:08.218Z,48.74
2017-05-26T13:26:10.138Z,48.54
2017-05-26T13:27:12.080Z,48.44
2017-05-26T13:28:13.972Z,48.74
2017-05-26T13:29:15.849Z,48.54
2017-05-26T13:30:17.710Z,48.90
2017-05-26T13:31:31.919Z,49.00
2017-05-26T13:32:33.783Z,48.61
2017-05-26T13:33:35.652Z,48.44
2017-05-26T13:34:37.544Z,48.54